Carre Das — FGG8212 — position and weather

sailwx.info

Track history (hours):
 
Tides and Currents Weather Stations Pressure Air Temp Water Temp Dewpoint Dewpoint Depression Visibility Wind Speed Wind Dir Waves Ship Positions

Carre Das

Last reported at 2017-Aug-26 19:18 UTC. Time now 2017-Sep-24 21:15 UTC.
Position N 47°30' W 002°28'.
Warning: this ship's position is 29 days out of date.

Length 14 m.

Type: Sailing vessel. MMSI: 227052570.

Date/timePositionNaut miles runAvg speedWind from/ knotsBaromVisibWave heightAir tempDewpointWater temp
2017-Aug-26 19:18N 47°30' W 002°28'2 7.0
2017-Aug-26 19:00N 47°30' W 002°31'4 7.6
2017-Aug-26 18:30N 47°28' W 002°36'4 7.9
2017-Aug-26 18:00N 47°26' W 002°41'4 7.8
2017-Aug-26 17:29N 47°24' W 002°46'5 7.8
2017-Aug-26 16:52N 47°21' W 002°52'1 0.1
2017-Aug-25 20:31N 47°20' W 002°53'0 0.0
2017-Aug-25 20:25N 47°20' W 002°53'0 0.0
2017-Aug-25 19:55N 47°20' W 002°53'0 0.0
2017-Aug-25 19:28N 47°20' W 002°53'0 0.0
2017-Aug-25 18:58N 47°20' W 002°53'0 0.0
2017-Aug-25 18:28N 47°20' W 002°53'0 0.0
2017-Aug-25 17:49N 47°20' W 002°53'0 0.0
2017-Aug-25 17:28N 47°20' W 002°53'0 0.0
2017-Aug-25 16:58N 47°20' W 002°53'0 0.0
2017-Aug-25 16:28N 47°20' W 002°53'0 0.0
2017-Aug-25 15:58N 47°20' W 002°53'0 0.0
2017-Aug-25 15:25N 47°21' W 002°53'3 0.2
2017-Aug-24 19:58N 47°23' W 002°57'0 0.0
2017-Aug-24 19:28N 47°23' W 002°57'0 0.0
2017-Aug-24 18:55N 47°23' W 002°57'0 0.0
2017-Aug-24 18:13N 47°23' W 002°57'0 0.0
2017-Aug-24 17:55N 47°23' W 002°57'0 0.0
2017-Aug-24 17:19N 47°23' W 002°57'0 0.0
2017-Aug-24 16:55N 47°23' W 002°57'0 0.0
2017-Aug-24 16:25N 47°23' W 002°57'0 0.0
2017-Aug-24 15:49N 47°23' W 002°57'0 0.0
2017-Aug-24 15:28N 47°23' W 002°57'0 0.0
2017-Aug-24 14:52N 47°23' W 002°57'0 0.0
2017-Aug-24 14:10N 47°23' W 002°57'0 0.0
2017-Aug-24 13:58N 47°23' W 002°57'0 0.0
2017-Aug-24 13:28N 47°23' W 002°57'0 0.0
2017-Aug-24 12:49N 47°23' W 002°57'0 0.0
2017-Aug-23 23:46N 47°23' W 002°57'0 0.0
2017-Aug-23 23:16N 47°23' W 002°57'0 0.0
2017-Aug-23 22:49N 47°23' W 002°57'0 0.0
2017-Aug-23 22:19N 47°23' W 002°57'0 0.0
2017-Aug-23 16:25N 47°23' W 002°57'0 0.0
2017-Aug-23 00:49N 47°23' W 002°57'0 0.0
2017-Aug-22 18:49N 47°23' W 002°57'0 0.0
2017-Aug-22 18:22N 47°23' W 002°57'0 0.0
2017-Aug-22 17:55N 47°23' W 002°57'0 0.0
2017-Aug-22 17:25N 47°23' W 002°57'0 0.0
2017-Aug-22 16:58N 47°23' W 002°57'0 0.0
2017-Aug-22 16:30N 47°23' W 002°57'1 2.7
2017-Aug-22 15:59N 47°22' W 002°58'6 5.4
2017-Aug-22 14:54N 47°18' W 003°04'2 5.9
2017-Aug-22 14:30N 47°18' W 003°00'5 1.0
2017-Aug-22 09:32N 47°20' W 002°53'0 0.0
2017-Aug-22 08:35N 47°20' W 002°53'0 0.0
2017-Aug-22 08:20N 47°20' W 002°53'0 0.0
2017-Aug-22 07:50N 47°20' W 002°53'0 0.0
2017-Aug-22 07:26N 47°20' W 002°53'0 0.0
2017-Aug-21 22:02N 47°20' W 002°53'0 0.0
2017-Aug-21 14:14N 47°20' W 002°53'0 0.0
2017-Aug-21 13:47N 47°20' W 002°53'0 0.1
2017-Aug-21 13:19N 47°20' W 002°53'1 3.8
2017-Aug-21 13:00N 47°22' W 002°53'3 5.6
2017-Aug-21 12:30N 47°24' W 002°52'2 4.1
2017-Aug-21 12:00N 47°26' W 002°52'2 3.1
2017-Aug-21 11:28N 47°28' W 002°52'1 1.8
2017-Aug-21 11:00N 47°29' W 002°52'4 0.1
2017-Aug-19 17:28N 47°33' W 002°54'0 0.0
2017-Aug-19 16:58N 47°33' W 002°54'0 0.0
2017-Aug-19 16:25N 47°33' W 002°54'0 0.0
2017-Aug-19 15:58N 47°33' W 002°54'0 0.0
2017-Aug-19 15:22N 47°33' W 002°54'0 0.0
2017-Aug-19 14:52N 47°33' W 002°54'0 0.0
2017-Aug-19 13:49N 47°33' W 002°54'0 0.0
2017-Aug-19 13:22N 47°33' W 002°54'0 0.0
2017-Aug-19 10:45N 47°33' W 002°54'1 2.9
2017-Aug-19 10:30N 47°32' W 002°55'3 5.7
2017-Aug-19 10:00N 47°29' W 002°55'3 6.1
2017-Aug-19 09:28N 47°26' W 002°55'3 0.2
2017-Aug-18 11:12N 47°23' W 002°57'1 2.4
2017-Aug-18 10:58N 47°23' W 002°56'3 0.1
2017-Aug-16 21:28N 47°21' W 002°53'  
Track history (hours):
 
Tides and Currents Weather Stations Pressure Air Temp Water Temp Dewpoint Dewpoint Depression Visibility Wind Speed Wind Dir Waves Ship Positions

Carre Das

Last reported at 2017-Aug-26 19:18 UTC. Time now 2017-Sep-24 21:15 UTC.
Position N 47°30' W 002°28'.
Warning: this ship's position is 29 days out of date.

Length 14 m.

Type: Sailing vessel. MMSI: 227052570.

Date/timePositionNaut miles runAvg speedWind from/ knotsBaromVisibWave heightAir tempDewpointWater temp
2017-Aug-26 19:18N 47°30' W 002°28'2 7.0
2017-Aug-26 19:00N 47°30' W 002°31'4 7.6
2017-Aug-26 18:30N 47°28' W 002°36'4 7.9
2017-Aug-26 18:00N 47°26' W 002°41'4 7.8
2017-Aug-26 17:29N 47°24' W 002°46'5 7.8
2017-Aug-26 16:52N 47°21' W 002°52'1 0.1
2017-Aug-25 20:31N 47°20' W 002°53'0 0.0
2017-Aug-25 20:25N 47°20' W 002°53'0 0.0
2017-Aug-25 19:55N 47°20' W 002°53'0 0.0
2017-Aug-25 19:28N 47°20' W 002°53'0 0.0
2017-Aug-25 18:58N 47°20' W 002°53'0 0.0
2017-Aug-25 18:28N 47°20' W 002°53'0 0.0
2017-Aug-25 17:49N 47°20' W 002°53'0 0.0
2017-Aug-25 17:28N 47°20' W 002°53'0 0.0
2017-Aug-25 16:58N 47°20' W 002°53'0 0.0
2017-Aug-25 16:28N 47°20' W 002°53'0 0.0
2017-Aug-25 15:58N 47°20' W 002°53'0 0.0
2017-Aug-25 15:25N 47°21' W 002°53'3 0.2
2017-Aug-24 19:58N 47°23' W 002°57'0 0.0
2017-Aug-24 19:28N 47°23' W 002°57'0 0.0
2017-Aug-24 18:55N 47°23' W 002°57'0 0.0
2017-Aug-24 18:13N 47°23' W 002°57'0 0.0
2017-Aug-24 17:55N 47°23' W 002°57'0 0.0
2017-Aug-24 17:19N 47°23' W 002°57'0 0.0
2017-Aug-24 16:55N 47°23' W 002°57'0 0.0
2017-Aug-24 16:25N 47°23' W 002°57'0 0.0
2017-Aug-24 15:49N 47°23' W 002°57'0 0.0
2017-Aug-24 15:28N 47°23' W 002°57'0 0.0
2017-Aug-24 14:52N 47°23' W 002°57'0 0.0
2017-Aug-24 14:10N 47°23' W 002°57'0 0.0
2017-Aug-24 13:58N 47°23' W 002°57'0 0.0
2017-Aug-24 13:28N 47°23' W 002°57'0 0.0
2017-Aug-24 12:49N 47°23' W 002°57'0 0.0
2017-Aug-23 23:46N 47°23' W 002°57'0 0.0
2017-Aug-23 23:16N 47°23' W 002°57'0 0.0
2017-Aug-23 22:49N 47°23' W 002°57'0 0.0
2017-Aug-23 22:19N 47°23' W 002°57'0 0.0
2017-Aug-23 16:25N 47°23' W 002°57'0 0.0
2017-Aug-23 00:49N 47°23' W 002°57'0 0.0
2017-Aug-22 18:49N 47°23' W 002°57'0 0.0
2017-Aug-22 18:22N 47°23' W 002°57'0 0.0
2017-Aug-22 17:55N 47°23' W 002°57'0 0.0
2017-Aug-22 17:25N 47°23' W 002°57'0 0.0
2017-Aug-22 16:58N 47°23' W 002°57'0 0.0
2017-Aug-22 16:30N 47°23' W 002°57'1 2.7
2017-Aug-22 15:59N 47°22' W 002°58'6 5.4
2017-Aug-22 14:54N 47°18' W 003°04'2 5.9
2017-Aug-22 14:30N 47°18' W 003°00'5 1.0
2017-Aug-22 09:32N 47°20' W 002°53'0 0.0
2017-Aug-22 08:35N 47°20' W 002°53'0 0.0
2017-Aug-22 08:20N 47°20' W 002°53'0 0.0
2017-Aug-22 07:50N 47°20' W 002°53'0 0.0
2017-Aug-22 07:26N 47°20' W 002°53'0 0.0
2017-Aug-21 22:02N 47°20' W 002°53'0 0.0
2017-Aug-21 14:14N 47°20' W 002°53'0 0.0
2017-Aug-21 13:47N 47°20' W 002°53'0 0.1
2017-Aug-21 13:19N 47°20' W 002°53'1 3.8
2017-Aug-21 13:00N 47°22' W 002°53'3 5.6
2017-Aug-21 12:30N 47°24' W 002°52'2 4.1
2017-Aug-21 12:00N 47°26' W 002°52'2 3.1
2017-Aug-21 11:28N 47°28' W 002°52'1 1.8
2017-Aug-21 11:00N 47°29' W 002°52'4 0.1
2017-Aug-19 17:28N 47°33' W 002°54'0 0.0
2017-Aug-19 16:58N 47°33' W 002°54'0 0.0
2017-Aug-19 16:25N 47°33' W 002°54'0 0.0
2017-Aug-19 15:58N 47°33' W 002°54'0 0.0
2017-Aug-19 15:22N 47°33' W 002°54'0 0.0
2017-Aug-19 14:52N 47°33' W 002°54'0 0.0
2017-Aug-19 13:49N 47°33' W 002°54'0 0.0
2017-Aug-19 13:22N 47°33' W 002°54'0 0.0
2017-Aug-19 10:45N 47°33' W 002°54'1 2.9
2017-Aug-19 10:30N 47°32' W 002°55'3 5.7
2017-Aug-19 10:00N 47°29' W 002°55'3 6.1
2017-Aug-19 09:28N 47°26' W 002°55'3 0.2
2017-Aug-18 11:12N 47°23' W 002°57'1 2.4
2017-Aug-18 10:58N 47°23' W 002°56'3 0.1
2017-Aug-16 21:28N 47°21' W 002°53'  

Dump ship's entire track history